Time;durP1;ratioP1;P1;durP2;ratioP2;P2;SDS_P1;SDS_P2;PMS_P1;PMS_P2;Temp;Humidity;BMP_temperature;BMP_pressure;BME280_temperature;BME280_humidity;BME280_pressure;Samples;Min_cycle;Max_cycle;Signal;HPM_P1;HPM_P2
2022/06/30 00:01:44;;;;;;;5.23;3.10;;;;;;;17.87;79.49;98279.09;5006732;28;20220;-50
2022/06/30 00:04:11;;;;;;;3.57;3.27;;;;;;;17.78;79.69;98281.16;5005246;28;20228;-50
2022/06/30 00:06:38;;;;;;;4.60;3.10;;;;;;;17.73;82.56;98277.50;5004973;28;20225;-50
2022/06/30 00:09:05;;;;;;;5.90;3.27;;;;;;;17.66;82.22;98273.03;5008353;28;20240;-49
2022/06/30 00:11:32;;;;;;;5.30;3.33;;;;;;;17.60;81.97;98275.69;5012266;28;20267;-50
2022/06/30 00:14:00;;;;;;;6.17;3.17;;;;;;;17.59;82.70;98271.44;5006537;28;20215;-50
2022/06/30 00:16:27;;;;;;;5.27;2.80;;;;;;;17.50;84.68;98282.19;5014051;28;20232;-49
2022/06/30 00:18:53;;;;;;;3.63;2.83;;;;;;;17.47;83.41;98281.81;5004684;28;20722;-50
2022/06/30 00:21:21;;;;;;;4.97;3.17;;;;;;;17.45;83.18;98282.00;5009287;28;20219;-50
2022/06/30 00:23:48;;;;;;;6.97;3.10;;;;;;;17.50;81.71;98274.28;5005799;28;20395;-49
2022/06/30 00:26:15;;;;;;;3.80;2.90;;;;;;;17.52;83.11;98280.16;5009578;28;20201;-49
2022/06/30 00:28:42;;;;;;;6.67;3.30;;;;;;;17.46;82.92;98280.97;5014944;28;20612;-49
2022/06/30 00:31:11;;;;;;;3.30;2.93;;;;;;;17.42;83.02;98277.13;5016821;28;20207;-49
2022/06/30 00:33:37;;;;;;;3.70;3.10;;;;;;;17.40;83.15;98264.16;5012597;28;20211;-50
2022/06/30 00:36:05;;;;;;;3.93;3.43;;;;;;;17.34;84.66;98267.59;5004705;28;20209;-49
2022/06/30 00:38:33;;;;;;;8.03;3.27;;;;;;;17.32;84.40;98269.63;5007130;28;20244;-50
2022/06/30 00:41:00;;;;;;;5.07;3.50;;;;;;;17.35;82.35;98269.22;5005357;28;20242;-49
2022/06/30 00:43:28;;;;;;;5.13;3.07;;;;;;;17.41;81.75;98268.41;5015808;28;20986;-49
2022/06/30 00:46:15;;;;;;;7.33;3.13;;;;;;;17.48;81.27;98264.97;5016640;28;20210;-49
2022/06/30 00:48:43;;;;;;;3.47;2.93;;;;;;;17.49;80.79;98253.38;5018161;28;20192;-49
2022/06/30 00:51:10;;;;;;;6.00;3.37;;;;;;;17.46;81.09;98248.53;5013620;28;20247;-49
2022/06/30 00:53:39;;;;;;;7.87;4.00;;;;;;;17.48;81.91;98252.56;5015832;28;20195;-49
2022/06/30 00:56:08;;;;;;;4.10;3.17;;;;;;;17.48;81.05;98244.66;5013801;28;20192;-49
2022/06/30 00:58:39;;;;;;;3.87;3.47;;;;;;;17.47;82.04;98248.31;5007710;28;20499;-49
2022/06/30 01:01:07;;;;;;;8.20;3.90;;;;;;;17.44;83.87;98248.72;5010089;28;20242;-49
2022/06/30 01:03:36;;;;;;;4.40;3.30;;;;;;;17.48;79.67;98247.28;5010709;28;20194;-49
2022/06/30 01:06:05;;;;;;;4.53;3.17;;;;;;;17.56;81.62;98240.97;5012249;28;20295;-49
2022/06/30 01:08:32;;;;;;;3.60;3.07;;;;;;;17.52;81.64;98251.13;5010243;28;20201;-49
2022/06/30 01:13:44;;;;;;;8.97;3.40;;;;;;;17.35;84.26;98249.94;5005373;28;20189;-49
2022/06/30 01:16:12;;;;;;;5.60;3.10;;;;;;;17.29;84.49;98237.56;5009730;28;20211;-50
2022/06/30 01:18:41;;;;;;;4.87;3.33;;;;;;;17.20;85.41;98243.03;5004043;28;20282;-49
2022/06/30 01:21:08;;;;;;;3.27;3.00;;;;;;;17.14;85.69;98251.75;5018643;28;20226;-49
2022/06/30 01:23:36;;;;;;;6.47;3.43;;;;;;;17.09;85.79;98255.00;5009562;28;20198;-49
2022/06/30 01:26:03;;;;;;;5.80;3.50;;;;;;;16.99;86.43;98256.41;5008896;28;20270;-49
2022/06/30 01:28:30;;;;;;;5.27;3.80;;;;;;;16.96;87.44;98260.25;5016515;28;20188;-49
2022/06/30 01:30:58;;;;;;;5.67;3.20;;;;;;;16.89;88.09;98257.63;5014766;28;20236;-49
2022/06/30 01:33:43;;;;;;;4.33;3.60;;;;;;;16.82;86.19;98254.94;5010039;28;20342;-49
2022/06/30 01:36:10;;;;;;;10.87;3.53;;;;;;;16.81;87.10;98250.69;5010204;28;20683;-50
2022/06/30 01:38:39;;;;;;;5.80;3.70;;;;;;;16.84;86.62;98246.84;5011426;28;20237;-49
2022/06/30 01:41:06;;;;;;;5.73;3.47;;;;;;;16.82;86.07;98248.88;5012403;28;20575;-50
2022/06/30 01:43:33;;;;;;;3.83;3.27;;;;;;;16.77;86.61;98244.19;5011825;28;20204;-49
2022/06/30 01:46:00;;;;;;;4.40;3.50;;;;;;;16.83;85.60;98235.50;5017554;28;20207;-50
2022/06/30 01:48:28;;;;;;;4.60;3.63;;;;;;;16.79;85.67;98239.53;5013039;28;20198;-50
2022/06/30 01:50:55;;;;;;;4.53;3.43;;;;;;;16.77;85.19;98236.28;5009376;28;20202;-50
2022/06/30 01:53:22;;;;;;;3.90;3.33;;;;;;;16.77;85.37;98233.66;5018944;28;20540;-49
2022/06/30 01:55:50;;;;;;;3.70;3.33;;;;;;;16.77;85.25;98230.22;5011110;28;20200;-49
2022/06/30 01:58:17;;;;;;;4.80;3.57;;;;;;;16.79;85.06;98228.19;5008367;28;20215;-49
2022/06/30 02:00:44;;;;;;;3.90;3.10;;;;;;;16.87;85.51;98238.56;5007868;28;20222;-50
2022/06/30 02:03:11;;;;;;;4.37;3.50;;;;;;;16.89;84.34;98231.25;5018438;28;20668;-49
2022/06/30 02:05:38;;;;;;;4.83;3.60;;;;;;;16.99;84.54;98227.41;5010724;28;20196;-49
2022/06/30 02:08:05;;;;;;;6.23;3.50;;;;;;;16.94;84.88;98222.72;5008408;28;20265;-50
2022/06/30 02:10:32;;;;;;;5.00;3.23;;;;;;;16.87;85.17;98228.00;5012936;28;20224;-50
2022/06/30 02:13:00;;;;;;;7.23;3.47;;;;;;;16.89;86.08;98225.97;5008281;28;20203;-49
2022/06/30 02:15:32;;;;;;;4.67;3.43;;;;;;;16.82;85.91;98225.97;5008183;28;20199;-50
2022/06/30 02:18:01;;;;;;;8.80;3.90;;;;;;;16.73;86.65;98227.16;5015708;28;20208;-50
2022/06/30 02:20:28;;;;;;;4.43;3.43;;;;;;;16.71;85.78;98223.13;5007764;28;20219;-49
2022/06/30 02:23:13;;;;;;;4.67;3.10;;;;;;;16.70;88.62;98224.91;5012129;28;20284;-50
2022/06/30 02:25:40;;;;;;;5.50;3.40;;;;;;;16.62;88.38;98227.75;5008661;28;20187;-50
2022/06/30 02:28:08;;;;;;;4.23;3.40;;;;;;;16.62;87.38;98223.31;5013997;28;20717;-50
2022/06/30 02:30:35;;;;;;;3.40;3.10;;;;;;;16.64;88.08;98221.28;5007952;28;20212;-50
2022/06/30 02:33:21;;;;;;;7.30;3.30;;;;;;;16.60;88.55;98222.69;5007405;28;20280;-49
2022/06/30 02:35:48;;;;;;;5.27;3.43;;;;;;;16.58;88.58;98227.34;5008915;28;20203;-50
2022/06/30 02:38:14;;;;;;;5.03;4.20;;;;;;;16.62;90.49;98228.56;5008123;28;20443;-50
2022/06/30 02:40:41;;;;;;;5.90;3.70;;;;;;;16.52;90.81;98222.88;5015697;28;20214;-50
2022/06/30 02:43:09;;;;;;;6.77;3.77;;;;;;;16.53;90.34;98224.50;5007414;28;20207;-50
2022/06/30 02:45:36;;;;;;;7.77;3.57;;;;;;;16.56;90.96;98224.09;5007471;28;20197;-50
2022/06/30 02:48:04;;;;;;;4.40;3.70;;;;;;;16.56;90.95;98228.53;5013396;28;20651;-49
2022/06/30 02:50:31;;;;;;;5.57;4.13;;;;;;;16.53;91.06;98221.88;5014239;28;20575;-50
2022/06/30 02:52:58;;;;;;;7.87;3.77;;;;;;;16.48;90.17;98221.66;5018840;28;20195;-49
2022/06/30 02:55:25;;;;;;;5.53;3.70;;;;;;;16.37;90.55;98220.41;5020086;28;20205;-49
2022/06/30 02:57:52;;;;;;;8.53;4.10;;;;;;;16.36;90.56;98222.22;5006614;28;20206;-49
2022/06/30 03:00:20;;;;;;;5.77;3.80;;;;;;;16.33;91.48;98219.19;5007390;28;20227;-50
2022/06/30 03:02:47;;;;;;;7.23;3.93;;;;;;;16.36;91.00;98216.16;5011104;28;20571;-50
2022/06/30 03:05:14;;;;;;;5.67;4.10;;;;;;;16.33;91.56;98219.19;5014847;28;20202;-50
2022/06/30 03:07:41;;;;;;;4.33;3.43;;;;;;;16.29;90.51;98224.03;5010910;28;20187;-50
2022/06/30 03:10:09;;;;;;;4.97;3.63;;;;;;;16.32;90.54;98223.63;5008063;28;20925;-49
2022/06/30 03:12:37;;;;;;;6.43;3.70;;;;;;;16.32;91.93;98225.47;5007327;28;20202;-50
2022/06/30 03:15:06;;;;;;;6.50;3.67;;;;;;;16.25;92.49;98220.16;5007281;28;20203;-50
2022/06/30 03:17:34;;;;;;;5.77;4.80;;;;;;;16.41;92.91;98220.81;5013725;28;20198;-51
2022/06/30 03:20:01;;;;;;;8.23;4.07;;;;;;;16.38;94.19;98233.38;5009204;28;20685;-49
2022/06/30 03:22:29;;;;;;;5.73;4.20;;;;;;;16.28;94.32;98232.13;5014628;28;20597;-50
2022/06/30 03:24:55;;;;;;;6.50;4.27;;;;;;;16.25;93.83;98224.63;5012090;28;20241;-49
2022/06/30 03:27:23;;;;;;;5.93;4.47;;;;;;;16.19;94.34;98232.31;5007145;28;20584;-50
2022/06/30 03:29:49;;;;;;;4.63;3.70;;;;;;;16.13;94.38;98233.09;5010349;28;20562;-49
2022/06/30 03:32:16;;;;;;;4.83;4.23;;;;;;;16.20;95.04;98233.09;5006827;28;20208;-50
2022/06/30 03:34:45;;;;;;;5.63;4.50;;;;;;;16.17;95.53;98228.22;5014051;28;20234;-50
2022/06/30 03:37:12;;;;;;;11.00;4.07;;;;;;;16.09;96.14;98227.38;5011587;28;20199;-50
2022/06/30 03:39:39;;;;;;;6.53;3.83;;;;;;;16.11;94.30;98237.75;5009122;28;20242;-50
2022/06/30 03:42:07;;;;;;;6.20;4.07;;;;;;;16.06;94.36;98229.63;5013354;28;20213;-49
2022/06/30 03:44:34;;;;;;;5.07;3.83;;;;;;;16.02;94.88;98229.19;5009541;28;20194;-50
2022/06/30 03:47:01;;;;;;;5.80;4.37;;;;;;;16.05;95.28;98226.16;5011412;28;20536;-50
2022/06/30 03:49:28;;;;;;;5.13;4.53;;;;;;;16.05;94.86;98225.34;5014412;28;20190;-49
2022/06/30 03:51:56;;;;;;;8.03;4.40;;;;;;;16.02;94.59;98226.53;5012324;28;20224;-49
2022/06/30 03:54:24;;;;;;;6.63;4.33;;;;;;;16.00;95.63;98222.50;5005984;28;20662;-50
2022/06/30 03:56:50;;;;;;;4.43;3.90;;;;;;;16.00;95.54;98220.66;5007732;28;20220;-49
2022/06/30 03:59:18;;;;;;;6.63;4.10;;;;;;;16.07;96.12;98229.41;5009682;28;20240;-50
2022/06/30 04:01:45;;;;;;;10.77;4.40;;;;;;;16.05;96.35;98234.06;5007670;28;20215;-50
2022/06/30 04:04:11;;;;;;;4.80;4.30;;;;;;;16.13;97.58;98232.25;5015582;28;20194;-49
2022/06/30 04:06:38;;;;;;;5.00;4.03;;;;;;;16.09;96.78;98231.84;5011563;28;20210;-50
2022/06/30 04:09:06;;;;;;;5.33;4.13;;;;;;;16.05;97.06;98226.16;5007740;28;20189;-50
2022/06/30 04:11:34;;;;;;;5.07;4.57;;;;;;;16.11;97.34;98227.22;5018936;28;20217;-50
2022/06/30 04:14:01;;;;;;;5.70;4.23;;;;;;;16.12;97.21;98233.28;5010712;28;20202;-49
2022/06/30 04:16:29;;;;;;;5.50;4.17;;;;;;;16.15;97.15;98232.88;5006076;28;20193;-49
2022/06/30 04:18:56;;;;;;;6.27;4.20;;;;;;;16.21;97.84;98226.81;5011581;28;20699;-50
2022/06/30 04:21:23;;;;;;;4.97;4.47;;;;;;;16.22;98.50;98228.44;5007986;28;20205;-50
2022/06/30 04:23:50;;;;;;;7.33;4.37;;;;;;;16.21;98.28;98227.66;5008045;28;20206;-50
2022/06/30 04:26:19;;;;;;;7.13;4.53;;;;;;;16.25;97.64;98228.06;5004592;28;20202;-50
2022/06/30 04:28:46;;;;;;;5.67;4.60;;;;;;;16.29;97.59;98218.75;5010402;28;20221;-50
2022/06/30 04:33:58;;;;;;;7.60;4.50;;;;;;;16.38;97.52;98214.13;5009654;28;20337;-50
2022/06/30 04:36:24;;;;;;;7.88;4.93;;;;;;;16.45;98.03;98216.78;5005734;28;20482;-49
2022/06/30 04:38:52;;;;;;;6.20;4.40;;;;;;;16.50;98.81;98209.09;5007416;28;20233;-50
2022/06/30 04:41:25;;;;;;;6.00;5.10;;;;;;;16.57;98.13;98225.72;5009627;28;20210;-49
2022/06/30 04:43:53;;;;;;;5.53;4.63;;;;;;;16.59;98.71;98226.34;5014646;28;20218;-49
2022/06/30 04:46:20;;;;;;;8.27;5.10;;;;;;;16.62;99.54;98225.09;5014867;28;20621;-50
2022/06/30 04:48:47;;;;;;;7.13;4.50;;;;;;;16.65;98.76;98220.25;5007107;28;20206;-49
2022/06/30 04:51:14;;;;;;;5.27;4.77;;;;;;;16.65;98.10;98217.63;5009104;28;20213;-50
2022/06/30 04:53:42;;;;;;;6.73;4.37;;;;;;;16.67;97.62;98212.97;5008278;28;20206;-49
2022/06/30 04:56:10;;;;;;;5.20;4.70;;;;;;;16.71;97.61;98210.72;5016825;28;20205;-50
2022/06/30 04:58:39;;;;;;;9.70;4.80;;;;;;;16.77;98.01;98211.78;5011427;28;20198;-50
2022/06/30 05:01:06;;;;;;;7.47;4.40;;;;;;;16.83;97.93;98211.75;5011160;28;21602;-50
2022/06/30 05:03:33;;;;;;;9.70;4.50;;;;;;;16.82;98.34;98207.50;5010065;28;20187;-50
2022/06/30 05:06:01;;;;;;;6.37;4.80;;;;;;;16.82;98.44;98214.63;5019278;28;20879;-50
2022/06/30 05:08:28;;;;;;;6.37;4.47;;;;;;;16.86;98.31;98215.00;5010361;28;20226;-50
2022/06/30 05:10:55;;;;;;;5.30;4.60;;;;;;;16.91;98.05;98216.03;5009389;28;20377;-49
2022/06/30 05:13:23;;;;;;;5.50;4.80;;;;;;;16.93;97.96;98213.19;5011509;28;20663;-49
2022/06/30 05:15:52;;;;;;;6.33;4.60;;;;;;;16.99;98.38;98204.50;5014251;28;20294;-50
2022/06/30 05:18:19;;;;;;;6.27;4.70;;;;;;;17.04;98.73;98198.59;5009752;28;20240;-49
2022/06/30 05:20:46;;;;;;;5.33;4.80;;;;;;;17.06;99.01;98196.59;5018372;28;20740;-49
2022/06/30 05:23:14;;;;;;;7.43;5.17;;;;;;;17.10;97.69;98195.16;5009655;28;20204;-50
2022/06/30 05:28:26;;;;;;;5.80;4.30;;;;;;;17.22;95.79;98193.53;5015021;28;20193;-50
2022/06/30 05:30:55;;;;;;;6.20;4.73;;;;;;;17.28;95.75;98194.56;5013981;28;20218;-50
2022/06/30 05:33:23;;;;;;;5.50;4.30;;;;;;;17.34;96.29;98199.00;5010534;28;20275;-50
2022/06/30 05:35:51;;;;;;;4.60;3.97;;;;;;;17.40;95.78;98195.56;5021107;28;20203;-50
2022/06/30 05:38:19;;;;;;;6.43;4.30;;;;;;;17.43;94.70;98186.41;5009246;28;20195;-49
2022/06/30 05:40:47;;;;;;;5.03;4.53;;;;;;;17.52;93.74;98187.81;5007773;28;20217;-50
2022/06/30 05:43:15;;;;;;;7.53;4.50;;;;;;;17.74;93.61;98200.75;5013874;28;20201;-49
2022/06/30 05:45:42;;;;;;;7.30;4.67;;;;;;;18.26;93.28;98202.59;5011040;28;20280;-50
2022/06/30 05:48:11;;;;;;;5.93;4.57;;;;;;;18.77;91.37;98210.63;5018106;28;20198;-50
2022/06/30 05:50:38;;;;;;;9.67;4.40;;;;;;;19.10;87.80;98207.75;5042249;28;20275;-50
2022/06/30 05:53:05;;;;;;;6.00;4.20;;;;;;;19.39;85.93;98208.09;5012836;28;20243;-50
2022/06/30 05:55:32;;;;;;;6.97;4.50;;;;;;;19.61;84.31;98210.31;5008992;28;20193;-50
2022/06/30 05:58:01;;;;;;;5.83;4.17;;;;;;;19.79;83.15;98206.06;5009288;28;20193;-50
2022/06/30 06:00:29;;;;;;;6.03;3.60;;;;;;;19.92;82.32;98203.28;5011486;28;20226;-50
2022/06/30 06:02:57;;;;;;;11.70;4.50;;;;;;;20.03;81.35;98207.03;5011712;28;20194;-51
2022/06/30 06:05:26;;;;;;;5.67;4.33;;;;;;;20.14;80.32;98202.81;5026153;28;20193;-50
2022/06/30 06:07:53;;;;;;;4.40;3.97;;;;;;;20.31;80.06;98203.00;5014778;28;20892;-50
2022/06/30 06:10:20;;;;;;;6.10;4.07;;;;;;;20.44;79.06;98200.16;5016019;28;20298;-50
2022/06/30 06:12:48;;;;;;;4.27;3.87;;;;;;;20.56;78.75;98192.25;5016265;28;20204;-50
2022/06/30 06:15:16;;;;;;;5.63;3.97;;;;;;;20.70;78.94;98197.34;5010662;28;20195;-50
2022/06/30 06:17:45;;;;;;;6.50;4.13;;;;;;;20.83;79.58;98191.06;5012595;28;20210;-50
2022/06/30 06:20:14;;;;;;;5.23;3.70;;;;;;;21.00;79.43;98194.66;5017948;28;20223;-49
2022/06/30 06:22:44;;;;;;;6.67;3.80;;;;;;;21.15;79.11;98188.09;5009072;28;20207;-50
2022/06/30 06:25:13;;;;;;;5.10;3.40;;;;;;;21.29;77.73;98183.38;5011527;28;20246;-50
2022/06/30 06:27:41;;;;;;;5.40;3.43;;;;;;;21.45;77.52;98189.81;5007959;28;20617;-50
2022/06/30 06:30:11;;;;;;;4.73;4.17;;;;;;;21.55;78.82;98178.63;5008146;28;20240;-50
2022/06/30 06:32:38;;;;;;;4.77;3.50;;;;;;;21.71;78.93;98177.09;5008847;28;20224;-50
2022/06/30 06:35:06;;;;;;;3.90;3.50;;;;;;;21.89;78.77;98176.13;5015267;28;20201;-50
2022/06/30 06:37:33;;;;;;;9.00;4.10;;;;;;;22.00;78.96;98180.59;5013729;28;20200;-50
2022/06/30 06:40:20;;;;;;;5.83;4.17;;;;;;;22.14;78.31;98173.16;5014762;28;20291;-50
2022/06/30 06:42:47;;;;;;;5.93;4.10;;;;;;;22.14;78.33;98180.31;5013257;28;20200;-50
2022/06/30 06:45:13;;;;;;;5.47;3.80;;;;;;;22.34;79.67;98179.88;5011728;28;20672;-50
2022/06/30 06:47:41;;;;;;;4.97;3.83;;;;;;;22.53;77.82;98180.50;5011870;28;20201;-50
2022/06/30 06:50:09;;;;;;;5.63;3.90;;;;;;;22.63;76.02;98187.84;5007647;28;20222;-50
2022/06/30 06:52:36;;;;;;;4.03;3.70;;;;;;;22.62;69.02;98197.69;5007914;28;20261;-50
2022/06/30 06:55:04;;;;;;;5.50;4.20;;;;;;;22.70;68.81;98199.13;5006351;28;20268;-50
2022/06/30 06:57:34;;;;;;;5.93;3.67;;;;;;;22.83;67.51;98188.19;5007307;28;20189;-50
2022/06/30 07:00:02;;;;;;;5.97;3.60;;;;;;;22.95;66.16;98195.28;5007946;28;20216;-50
2022/06/30 07:02:29;;;;;;;6.87;4.00;;;;;;;23.00;65.15;98196.16;5041846;28;20213;-51
2022/06/30 07:04:56;;;;;;;6.50;3.90;;;;;;;23.00;63.47;98203.34;5011603;28;20570;-50
2022/06/30 07:07:23;;;;;;;4.10;3.70;;;;;;;22.94;63.98;98196.34;5010752;28;20199;-50
2022/06/30 07:09:51;;;;;;;6.30;3.87;;;;;;;23.07;65.30;98205.84;5010182;28;20191;-50
2022/06/30 07:12:18;;;;;;;4.07;3.67;;;;;;;23.12;64.50;98197.94;5007270;28;20196;-50
2022/06/30 07:14:46;;;;;;;6.27;3.80;;;;;;;23.18;65.39;98204.16;5014439;28;20554;-50
2022/06/30 07:17:13;;;;;;;5.27;3.97;;;;;;;23.22;64.72;98205.28;5010970;28;20215;-50
2022/06/30 07:19:40;;;;;;;6.97;4.63;;;;;;;23.09;66.24;98209.06;5007020;28;20223;-50
2022/06/30 07:22:07;;;;;;;5.13;4.20;;;;;;;23.14;66.94;98209.97;5007471;28;21573;-50
2022/06/30 07:24:34;;;;;;;7.70;4.80;;;;;;;23.14;66.82;98209.97;5012356;28;20192;-50
2022/06/30 07:27:01;;;;;;;4.93;4.40;;;;;;;23.25;67.59;98204.81;5009993;28;20251;-50
2022/06/30 07:29:30;;;;;;;6.43;4.67;;;;;;;23.31;67.71;98205.69;5019489;28;20257;-50
2022/06/30 07:31:58;;;;;;;5.23;4.50;;;;;;;23.35;66.67;98212.94;5019730;28;20221;-50
2022/06/30 07:34:25;;;;;;;5.80;4.60;;;;;;;23.37;66.12;98210.81;5017320;28;20226;-50
2022/06/30 07:36:51;;;;;;;7.23;4.80;;;;;;;23.44;65.35;98214.13;5013448;28;20201;-50
2022/06/30 07:39:18;;;;;;;6.77;4.90;;;;;;;23.50;64.90;98207.03;5015527;28;20239;-50
2022/06/30 07:41:46;;;;;;;7.70;4.50;;;;;;;23.43;65.83;98212.50;5018553;28;20505;-50
2022/06/30 07:44:13;;;;;;;6.73;3.97;;;;;;;23.56;64.71;98202.56;5016984;28;20728;-50
2022/06/30 07:46:41;;;;;;;5.20;4.70;;;;;;;23.63;63.74;98200.53;5006655;28;20303;-50
2022/06/30 07:49:09;;;;;;;5.93;4.53;;;;;;;23.68;64.54;98210.47;5009579;28;20195;-50
2022/06/30 07:51:36;;;;;;;5.50;4.50;;;;;;;23.69;64.72;98209.41;5006321;28;20221;-50
2022/06/30 07:54:03;;;;;;;7.53;4.73;;;;;;;23.55;65.97;98214.25;5006243;28;20185;-50
2022/06/30 07:56:31;;;;;;;7.13;4.50;;;;;;;23.74;64.74;98212.13;5011866;28;20207;-50
2022/06/30 07:58:57;;;;;;;4.80;4.40;;;;;;;23.77;65.46;98211.63;5015974;28;20194;-50
2022/06/30 08:01:25;;;;;;;5.97;4.37;;;;;;;23.87;65.63;98205.63;5011218;28;20204;-50
2022/06/30 08:03:52;;;;;;;6.83;4.67;;;;;;;23.91;64.41;98201.41;5011476;28;20252;-51
2022/06/30 08:06:21;;;;;;;6.13;4.50;;;;;;;23.97;64.41;98207.59;5014979;28;20203;-50
2022/06/30 08:08:48;;;;;;;6.87;4.50;;;;;;;23.92;63.55;98199.53;5006439;28;20197;-50
2022/06/30 08:11:15;;;;;;;7.10;4.57;;;;;;;24.00;64.43;98202.59;5006011;28;20224;-50
2022/06/30 08:13:42;;;;;;;4.80;4.30;;;;;;;23.97;63.96;98195.06;5005912;28;20657;-49
2022/06/30 08:16:11;;;;;;;7.13;4.60;;;;;;;24.07;64.46;98190.94;5035473;28;20200;-49
2022/06/30 08:18:38;;;;;;;6.27;5.00;;;;;;;24.18;64.77;98190.78;5004209;28;20660;-50
2022/06/30 08:21:06;;;;;;;5.90;4.47;;;;;;;24.33;63.39;98192.00;5006199;28;20224;-50
2022/06/30 08:23:35;;;;;;;6.90;4.57;;;;;;;24.35;63.41;98191.78;5004613;28;20229;-50
2022/06/30 08:26:02;;;;;;;10.07;5.13;;;;;;;24.23;64.02;98183.91;5006827;28;20203;-49
2022/06/30 08:28:31;;;;;;;7.70;4.53;;;;;;;24.42;64.55;98187.00;5005289;28;20221;-50
2022/06/30 08:31:17;;;;;;;6.93;4.83;;;;;;;24.58;64.06;98191.44;5011034;28;20306;-50
2022/06/30 08:33:44;;;;;;;6.87;4.70;;;;;;;24.56;64.63;98190.09;5010027;28;20209;-49
2022/06/30 08:36:11;;;;;;;5.57;4.60;;;;;;;24.65;65.00;98182.41;5013874;28;20208;-49
2022/06/30 08:38:58;;;;;;;8.70;4.83;;;;;;;24.73;62.85;98187.31;5009535;28;20251;-50
2022/06/30 08:44:12;;;;;;;7.30;4.70;;;;;;;24.79;62.66;98170.28;5012722;28;20330;-50
2022/06/30 08:46:39;;;;;;;7.87;5.27;;;;;;;24.81;64.27;98178.06;5012203;28;20194;-50
2022/06/30 08:49:06;;;;;;;7.57;4.73;;;;;;;24.97;62.84;98178.97;5009043;28;20566;-51
2022/06/30 08:51:36;;;;;;;5.90;4.00;;;;;;;25.02;62.68;98179.78;5014236;28;20221;-49
2022/06/30 08:54:04;;;;;;;9.80;4.30;;;;;;;25.14;60.56;98168.94;5008925;28;20190;-50
2022/06/30 08:56:34;;;;;;;9.20;4.63;;;;;;;25.15;61.94;98175.06;5010795;28;20195;-50
2022/06/30 08:59:03;;;;;;;7.97;4.50;;;;;;;25.20;60.30;98173.25;5015109;28;20671;-50
2022/06/30 09:01:30;;;;;;;8.52;5.10;;;;;;;25.26;58.93;98168.72;5007518;28;20449;-50
2022/06/30 09:03:58;;;;;;;7.00;4.50;;;;;;;25.35;60.22;98163.72;5012927;28;20693;-50
2022/06/30 09:06:24;;;;;;;5.60;4.67;;;;;;;25.41;61.51;98161.88;5012334;28;20197;-50
2022/06/30 09:08:52;;;;;;;4.77;4.27;;;;;;;25.45;60.48;98163.78;5007123;28;20649;-50
2022/06/30 09:11:27;;;;;;;5.47;4.70;;;;;;;25.55;60.24;98168.38;5020391;28;20199;-50
2022/06/30 09:13:55;;;;;;;5.57;3.90;;;;;;;25.56;59.77;98164.63;5008592;28;20208;-50
2022/06/30 09:16:22;;;;;;;5.50;3.90;;;;;;;25.71;59.12;98157.75;5013429;28;20624;-50
2022/06/30 09:18:58;;;;;;;7.03;4.20;;;;;;;25.57;58.57;98150.22;5010815;28;20210;-50
2022/06/30 09:21:27;;;;;;;7.67;4.60;;;;;;;25.64;58.06;98142.75;5010704;28;20221;-51
2022/06/30 09:23:54;;;;;;;3.93;3.27;;;;;;;25.76;52.85;98149.75;5018510;28;20200;-50
2022/06/30 09:26:23;;;;;;;6.00;2.60;;;;;;;25.89;47.43;98137.75;5013453;28;20206;-50
2022/06/30 09:28:53;;;;;;;3.40;3.10;;;;;;;26.08;51.71;98146.06;5009247;28;20625;-50
2022/06/30 09:31:33;;;;;;;4.97;3.60;;;;;;;26.23;55.38;98135.44;5007988;28;20298;-50
2022/06/30 09:34:12;;;;;;;4.37;2.83;;;;;;;26.35;47.83;98139.72;5007595;28;20236;-50
2022/06/30 09:36:39;;;;;;;7.83;2.93;;;;;;;26.43;49.32;98138.41;5008240;28;20277;-50
2022/06/30 09:39:08;;;;;;;5.60;3.10;;;;;;;26.57;47.19;98142.13;5008205;28;20190;-50
2022/06/30 09:41:39;;;;;;;7.33;3.60;;;;;;;26.67;49.17;98144.03;5007226;28;20218;-51
2022/06/30 09:44:07;;;;;;;6.33;2.90;;;;;;;26.60;47.20;98141.59;5012392;28;20635;-50
2022/06/30 09:46:36;;;;;;;5.40;2.77;;;;;;;26.72;45.38;98145.88;5011525;28;20749;-50
2022/06/30 09:49:04;;;;;;;4.17;1.87;;;;;;;26.84;41.80;98141.09;5007229;28;20664;-50
2022/06/30 09:51:31;;;;;;;5.13;2.90;;;;;;;26.95;46.91;98136.53;5014523;28;20235;-50
2022/06/30 09:54:09;;;;;;;8.75;3.53;;;;;;;27.04;46.23;98139.44;5007947;28;20213;-50
2022/06/30 09:56:38;;;;;;;3.58;2.42;;;;;;;27.15;43.49;98142.88;5007554;28;20264;-50
2022/06/30 09:59:06;;;;;;;4.63;2.47;;;;;;;27.15;42.37;98143.72;5007714;28;20199;-50
2022/06/30 10:01:51;;;;;;;4.03;2.63;;;;;;;27.16;42.77;98131.91;5007471;28;20231;-50
2022/06/30 10:04:18;;;;;;;6.73;2.30;;;;;;;27.21;40.68;98131.91;5007258;28;20203;-50
2022/06/30 10:06:46;;;;;;;3.10;2.50;;;;;;;27.34;42.73;98135.09;5010944;28;20569;-50
2022/06/30 10:09:17;;;;;;;2.63;2.30;;;;;;;27.38;40.91;98136.16;5007681;28;20223;-50
2022/06/30 10:11:47;;;;;;;4.40;2.07;;;;;;;27.22;41.37;98130.84;5009118;28;20225;-50
2022/06/30 10:14:16;;;;;;;2.87;2.07;;;;;;;27.38;37.84;98139.63;5007659;28;20558;-50
2022/06/30 10:16:44;;;;;;;3.90;2.15;;;;;;;27.58;39.91;98131.78;5012824;28;20193;-50
2022/06/30 10:19:13;;;;;;;2.90;2.35;;;;;;;27.81;42.60;98138.41;5011844;28;20272;-50
2022/06/30 10:21:42;;;;;;;3.10;2.50;;;;;;;27.82;42.32;98140.00;5007410;28;20302;-50
2022/06/30 10:24:09;;;;;;;4.38;2.58;;;;;;;27.84;40.39;98144.00;5007327;28;20207;-50
2022/06/30 10:29:23;;;;;;;6.82;3.17;;;;;;;27.69;41.40;98141.38;5019944;28;20190;-48
2022/06/30 10:32:01;;;;;;;5.67;2.70;;;;;;;27.64;43.48;98138.72;5008759;28;20227;-48
2022/06/30 10:34:35;;;;;;;3.78;3.00;;;;;;;27.79;42.91;98140.56;5006688;28;20301;-49
2022/06/30 10:37:08;;;;;;;4.13;2.70;;;;;;;27.94;42.04;98143.16;5019269;28;20199;-48
2022/06/30 10:39:44;;;;;;;4.90;2.47;;;;;;;27.93;42.42;98140.72;5009559;28;20282;-48
2022/06/30 10:42:41;;;;;;;4.68;3.00;;;;;;;27.86;41.12;98143.72;5006555;28;20296;-48
2022/06/30 10:45:34;;;;;;;3.70;2.72;;;;;;;28.03;41.55;98142.56;5007014;28;20268;-48
2022/06/30 10:48:04;;;;;;;4.13;2.60;;;;;;;28.07;40.66;98144.41;5006470;28;20195;-49
2022/06/30 10:50:34;;;;;;;3.30;2.80;;;;;;;27.87;40.96;98131.09;5010602;28;20214;-48
2022/06/30 10:53:03;;;;;;;5.50;2.70;;;;;;;27.96;40.08;98134.81;5008134;28;20206;-49
2022/06/30 10:55:30;;;;;;;3.25;2.78;;;;;;;28.05;41.48;98127.00;5006725;28;20191;-48
2022/06/30 10:58:04;;;;;;;6.28;2.70;;;;;;;28.00;41.74;98125.13;5006699;28;21583;-48
2022/06/30 11:00:58;;;;;;;5.40;2.83;;;;;;;28.02;40.74;98124.88;5006985;28;20233;-49
2022/06/30 11:03:59;;;;;;;3.38;3.08;;;;;;;28.28;39.83;98123.63;5011833;28;20199;-48
2022/06/30 11:07:06;;;;;;;5.57;3.08;;;;;;;28.11;41.69;98125.84;5006524;28;20699;-48
2022/06/30 11:10:16;;;;;;;3.58;2.90;;;;;;;28.09;42.23;98115.41;5005878;28;20205;-50
2022/06/30 11:13:07;;;;;;;5.53;2.95;;;;;;;28.18;42.57;98112.19;5006249;28;20182;-48
2022/06/30 11:15:53;;;;;;;3.38;3.00;;;;;;;28.39;40.59;98121.69;5004440;28;20218;-48
2022/06/30 11:18:21;;;;;;;4.15;2.92;;;;;;;28.34;40.36;98110.97;5005593;28;20191;-48
2022/06/30 11:20:50;;;;;;;4.35;2.97;;;;;;;28.25;40.93;98107.28;5009774;28;20588;-48
2022/06/30 11:23:19;;;;;;;6.55;3.00;;;;;;;28.40;41.95;98107.19;5006274;28;20227;-50
2022/06/30 11:28:34;;;;;;;9.57;3.50;;;;;;;28.62;40.46;98097.84;5010250;28;20203;-48
2022/06/30 11:31:02;;;;;;;5.63;3.00;;;;;;;28.61;41.61;98093.56;5005940;28;20215;-48
2022/06/30 11:33:29;;;;;;;3.50;3.00;;;;;;;28.55;41.84;98086.66;5006682;28;20195;-48
2022/06/30 11:36:05;;;;;;;6.00;2.72;;;;;;;28.64;41.75;98084.94;5006070;28;20210;-50
2022/06/30 11:38:32;;;;;;;7.38;3.20;;;;;;;28.85;42.95;98082.06;5009703;28;20199;-50
2022/06/30 11:41:54;;;;;;;3.60;3.30;;;;;;;28.89;40.85;98076.94;5005367;28;20216;-50
2022/06/30 11:43:52;;;;;;;4.55;2.95;;;;;;;28.97;40.29;98076.31;5006005;28;20200;-50
2022/06/30 11:46:21;;;;;;;4.82;3.38;;;;;;;28.97;40.45;98071.75;5004345;28;20208;-50
2022/06/30 11:48:49;;;;;;;4.03;2.50;;;;;;;29.15;40.72;98083.59;5006840;28;20205;-50
2022/06/30 11:51:16;;;;;;;5.05;2.53;;;;;;;29.16;39.37;98082.53;5039254;28;20325;-50
2022/06/30 11:53:45;;;;;;;6.95;2.40;;;;;;;29.14;39.58;98081.22;5008211;28;20193;-51
2022/06/30 11:56:12;;;;;;;4.20;2.58;;;;;;;28.96;39.91;98069.34;5005754;28;20203;-50
2022/06/30 11:58:40;;;;;;;3.72;2.60;;;;;;;29.04;38.82;98063.34;5005812;28;20200;-50
2022/06/30 12:01:14;;;;;;;4.65;2.65;;;;;;;29.17;39.79;98059.16;5005093;28;20247;-50